首页
METAR-TAF:

METAR-TAF

机场 :

威尼斯-泰塞拉机场

威尼斯, 意大利

纬度: 45-30N, 经度: 012-20E, 海拔: 2米

当前天气观测

该预报发布于21分钟前的10:20 UTC
风速8节,风向东转东北
温度 12°C
湿度 88%
气压 1014 hPa
能见度10公里或以上
少量云层高于3000英尺
多云层高于7000英尺

METAR: LIPZ 221020Z 06008KT 9999 FEW030 BKN070 12/10 Q1014 NOSIG

时间: 11:41 (10:41 UTC)

预报

该预报发布于5小时和41分钟前的05:00 UTC
预报有效从22日的 06点(UTC)到 23日的 12点(UTC)
风速6节,风向北转东北
能見度: 1600
散云层高于2000英尺
轻雾
短暂存在
从 22日的 06点(UTC)到 22日的 08点(UTC)
能見度: 0400
多云层高于400英尺
短暂存在
从 22日的 10点(UTC)到 22日的 14点(UTC)
成为
从 22日的 08点(UTC)到 22日的 10点(UTC)
能見度: 6000
短暂存在
从 23日的 08点(UTC)到 23日的 12点(UTC)

TAF: LIPZ 220500Z 2206/2312 03006KT 1600 BR SCT020 TEMPO 2206/2208 0400 FG BKN004 TEMPO 2210/2214 RA BECMG 2208/2210 6000 TEMPO 2308/2312 RA

超过4000个机场的气象观测和天气预报(METAR&TAF报告)。

可查询的气象台以黄色和红色小点在地图上表示。

将鼠标移到小点上方,可查看气象台名称。

然后点击查看天气观测和预报。

如需切换地图:点击带黑十字的绿色按钮放大地图;点击带横线的绿色按钮缩小地图;或者点击绿色箭头查看邻近地区的地图。


METAR-TAF: